Terminal Aerodrome Forecast
Issued by NWS North Platte, NE

Home | Current Version | Previous Version | Graphics & Text | Print | Product List | Glossary On
Versions: 1 2 3 4 5 6 7 8 9 10 11 12 13 14
489
FTUS43 KLBF 270730 AAA
TAFVTN
TAF AMD
KVTN 270730Z 2708/2806 24004KT 1 1/2SM BR BKN002
      TEMPO 2708/2710 1/2SM FG VV002
     FM271000 21005KT 1SM BR SCT002 OVC010
     FM271400 19008KT P6SM SCT250
     FM271900 19009KT P6SM SKC
     FM280100 VRB06KT P6SM SKC=

USA.gov is the U.S. government's official web portal to all federal, state and local government web resources and services.